createdAt,value
2022-09-14T00:00:43.579Z,41.04
2022-09-14T00:01:43.589Z,41.80
2022-09-14T00:02:43.719Z,40.79
2022-09-14T00:03:43.628Z,40.51
2022-09-14T00:04:43.556Z,41.40
2022-09-14T00:05:43.560Z,41.05
2022-09-14T00:06:43.567Z,43.07
2022-09-14T00:07:43.534Z,44.03
2022-09-14T00:08:43.565Z,41.09
2022-09-14T00:09:43.542Z,40.96
2022-09-14T00:10:43.565Z,40.77
2022-09-14T00:11:43.520Z,40.84
2022-09-14T00:12:43.497Z,41.18
2022-09-14T00:13:43.505Z,42.58
2022-09-14T00:14:43.515Z,42.20
2022-09-14T00:15:43.485Z,40.95
2022-09-14T00:16:43.554Z,40.85
2022-09-14T00:17:43.457Z,45.60
2022-09-14T00:18:43.471Z,42.35
2022-09-14T00:19:43.459Z,43.36
2022-09-14T00:20:43.481Z,41.13
2022-09-14T00:21:43.443Z,40.82
2022-09-14T00:22:44.427Z,41.36
2022-09-14T00:23:43.425Z,42.44
2022-09-14T00:24:43.473Z,42.92
2022-09-14T00:25:43.449Z,43.14
2022-09-14T00:26:43.414Z,42.02
2022-09-14T00:27:43.416Z,42.50
2022-09-14T00:28:43.499Z,42.69
2022-09-14T00:29:43.425Z,42.92
2022-09-14T00:30:43.381Z,42.85
2022-09-14T00:31:43.473Z,42.44
2022-09-14T00:32:43.395Z,42.32
2022-09-14T00:33:43.367Z,42.67
2022-09-14T00:34:43.358Z,41.52
2022-09-14T00:35:43.378Z,43.76
2022-09-14T00:36:43.342Z,46.18
2022-09-14T00:37:43.344Z,42.89
2022-09-14T00:38:43.326Z,40.88
2022-09-14T00:39:43.380Z,42.45
2022-09-14T00:40:43.359Z,41.00
2022-09-14T00:41:43.332Z,40.32
2022-09-14T00:42:43.307Z,43.17
2022-09-14T00:43:43.397Z,41.55
2022-09-14T00:44:43.323Z,40.11
2022-09-14T00:45:43.363Z,40.20
2022-09-14T00:46:43.287Z,42.50
2022-09-14T00:47:43.279Z,43.54
2022-09-14T00:48:43.365Z,44.67
2022-09-14T00:49:43.311Z,43.53
2022-09-14T00:50:43.262Z,39.96
2022-09-14T00:51:43.302Z,40.15
2022-09-14T00:52:43.277Z,43.81
2022-09-14T00:53:43.232Z,39.82
2022-09-14T00:54:43.274Z,42.41
2022-09-14T00:55:43.228Z,42.08
2022-09-14T00:56:43.226Z,38.76
2022-09-14T00:57:43.224Z,38.79
2022-09-14T00:58:43.246Z,39.13
2022-09-14T00:59:43.299Z,39.57
2022-09-14T01:00:43.208Z,39.75
2022-09-14T01:01:43.229Z,40.10
2022-09-14T01:02:43.216Z,40.27
2022-09-14T01:03:43.210Z,40.38
2022-09-14T01:04:43.165Z,41.05
2022-09-14T01:05:43.145Z,43.47
2022-09-14T01:06:43.140Z,43.34
2022-09-14T01:07:43.170Z,42.24
2022-09-14T01:08:43.179Z,45.11
2022-09-14T01:09:43.155Z,41.79
2022-09-14T01:10:43.138Z,40.55
2022-09-14T01:11:43.117Z,41.66
2022-09-14T01:12:43.150Z,43.53
2022-09-14T01:13:43.120Z,40.36
2022-09-14T01:14:43.134Z,40.04
2022-09-14T01:15:43.093Z,43.17
2022-09-14T01:16:43.178Z,41.00
2022-09-14T01:17:43.077Z,40.65
2022-09-14T01:18:43.112Z,40.59
2022-09-14T01:19:43.088Z,40.89
2022-09-14T01:20:43.058Z,43.85
2022-09-14T01:21:43.055Z,46.68
2022-09-14T01:22:43.053Z,45.46
2022-09-14T01:23:43.056Z,44.80
2022-09-14T01:24:43.048Z,44.85
2022-09-14T01:25:43.047Z,45.46
2022-09-14T01:26:43.041Z,44.83
2022-09-14T01:27:43.023Z,47.76
2022-09-14T01:28:43.016Z,50.43
2022-09-14T01:29:43.043Z,50.49
2022-09-14T01:30:43.035Z,49.32
2022-09-14T01:31:43.089Z,49.43
2022-09-14T01:32:43.003Z,48.65
2022-09-14T01:33:43.103Z,49.06
2022-09-14T01:34:42.980Z,49.65
2022-09-14T01:35:42.975Z,48.77
2022-09-14T01:36:43.002Z,48.58
2022-09-14T01:37:42.991Z,50.95
2022-09-14T01:38:42.957Z,48.62
2022-09-14T01:39:44.005Z,48.80
2022-09-14T01:40:43.975Z,47.92
2022-09-14T01:41:42.979Z,47.11
2022-09-14T01:42:42.940Z,47.89
2022-09-14T01:43:42.924Z,48.82
2022-09-14T01:44:42.930Z,49.82
2022-09-14T01:45:43.003Z,51.22
2022-09-14T01:46:42.903Z,51.75
2022-09-14T01:47:42.926Z,53.30
2022-09-14T01:48:43.096Z,54.31
2022-09-14T01:49:42.914Z,55.94
2022-09-14T01:50:42.875Z,56.07
2022-09-14T01:51:42.963Z,56.33
2022-09-14T01:52:42.864Z,56.31
2022-09-14T01:53:42.844Z,56.51
2022-09-14T01:54:42.866Z,54.86
2022-09-14T01:55:42.850Z,53.53
2022-09-14T01:56:42.873Z,53.88
2022-09-14T01:57:42.834Z,52.22
2022-09-14T01:58:42.851Z,52.71
2022-09-14T01:59:42.842Z,52.57
2022-09-14T02:00:42.877Z,53.04
2022-09-14T02:01:44.692Z,52.80
2022-09-14T02:02:42.871Z,52.83
2022-09-14T02:03:42.833Z,52.65
2022-09-14T02:04:42.823Z,52.44
2022-09-14T02:05:42.792Z,51.81
2022-09-14T02:06:42.786Z,51.58
2022-09-14T02:07:42.810Z,50.09
2022-09-14T02:08:42.791Z,49.54
2022-09-14T02:09:42.756Z,50.75
2022-09-14T02:10:42.800Z,48.99
2022-09-14T02:11:42.747Z,48.66
2022-09-14T02:12:42.772Z,49.85
2022-09-14T02:13:42.737Z,51.04
2022-09-14T02:14:42.730Z,50.96
2022-09-14T02:15:42.816Z,49.93
2022-09-14T02:16:42.809Z,48.91
2022-09-14T02:17:42.743Z,48.53
2022-09-14T02:18:42.709Z,49.22
2022-09-14T02:19:42.721Z,52.60
2022-09-14T02:20:42.700Z,53.62
2022-09-14T02:21:42.722Z,54.43
2022-09-14T02:22:42.698Z,52.50
2022-09-14T02:23:42.684Z,52.44
2022-09-14T02:24:42.686Z,52.46
2022-09-14T02:25:42.734Z,51.81
2022-09-14T02:26:42.657Z,52.04
2022-09-14T02:27:42.655Z,52.08
2022-09-14T02:28:42.658Z,52.39
2022-09-14T02:29:42.665Z,52.27
2022-09-14T02:30:42.686Z,49.31
2022-09-14T02:31:42.708Z,49.98
2022-09-14T02:32:42.630Z,48.22
2022-09-14T02:33:42.663Z,48.81
2022-09-14T02:34:42.633Z,47.44
2022-09-14T02:35:42.627Z,47.56
2022-09-14T02:36:42.631Z,48.09
2022-09-14T02:37:42.634Z,46.92
2022-09-14T02:38:43.601Z,46.16
2022-09-14T02:39:42.742Z,46.26
2022-09-14T02:40:42.598Z,45.47
2022-09-14T02:41:42.580Z,47.15
2022-09-14T02:42:42.557Z,49.72
2022-09-14T02:43:42.563Z,48.78
2022-09-14T02:44:42.556Z,48.55
2022-09-14T02:45:42.577Z,48.66
2022-09-14T02:46:42.601Z,48.08
2022-09-14T02:47:42.579Z,47.58
2022-09-14T02:48:42.529Z,49.66
2022-09-14T02:49:42.524Z,49.82
2022-09-14T02:50:42.517Z,49.61
2022-09-14T02:51:42.523Z,49.59
2022-09-14T02:52:42.538Z,50.01
2022-09-14T02:53:42.502Z,52.15
2022-09-14T02:54:42.501Z,50.59
2022-09-14T02:55:42.561Z,51.91
2022-09-14T02:56:42.478Z,53.04
2022-09-14T02:57:42.520Z,53.88
2022-09-14T02:58:42.473Z,54.48
2022-09-14T02:59:42.454Z,54.78
2022-09-14T03:00:42.655Z,54.12
2022-09-14T03:01:42.525Z,53.66
2022-09-14T03:02:42.492Z,53.17
2022-09-14T03:03:42.464Z,53.64
2022-09-14T03:04:42.442Z,52.52
2022-09-14T03:05:42.421Z,50.74
2022-09-14T03:06:42.464Z,50.63
2022-09-14T03:07:42.411Z,51.22
2022-09-14T03:08:42.399Z,49.79
2022-09-14T03:09:42.449Z,51.06
2022-09-14T03:10:42.387Z,51.52
2022-09-14T03:11:42.496Z,50.64
2022-09-14T03:12:42.354Z,49.50
2022-09-14T03:13:43.410Z,51.84
2022-09-14T03:14:42.379Z,50.40
2022-09-14T03:15:42.390Z,49.67
2022-09-14T03:16:42.359Z,49.79
2022-09-14T03:17:42.346Z,52.20
2022-09-14T03:18:42.387Z,51.78
2022-09-14T03:19:42.325Z,51.21
2022-09-14T03:20:42.327Z,50.71
2022-09-14T03:21:42.383Z,53.89
2022-09-14T03:22:42.320Z,52.95
2022-09-14T03:23:42.315Z,52.18
2022-09-14T03:24:42.315Z,50.45
2022-09-14T03:25:42.288Z,50.54
2022-09-14T03:26:42.325Z,47.16
2022-09-14T03:27:42.281Z,50.06
2022-09-14T03:28:42.333Z,48.13
2022-09-14T03:29:42.268Z,48.74
2022-09-14T03:30:42.278Z,50.79
2022-09-14T03:31:42.336Z,54.33
2022-09-14T03:32:42.244Z,51.69
2022-09-14T03:33:42.372Z,51.24
2022-09-14T03:34:42.262Z,54.52
2022-09-14T03:35:42.254Z,50.07
2022-09-14T03:36:42.250Z,49.79
2022-09-14T03:37:42.226Z,50.71
2022-09-14T03:38:42.236Z,52.13
2022-09-14T03:39:42.368Z,52.65
2022-09-14T03:40:42.192Z,52.67
2022-09-14T03:41:42.217Z,53.57
2022-09-14T03:42:42.176Z,51.82
2022-09-14T03:43:42.184Z,51.71
2022-09-14T03:44:42.186Z,52.48
2022-09-14T03:45:42.203Z,52.76
2022-09-14T03:46:42.240Z,51.22
2022-09-14T03:47:42.167Z,53.19
2022-09-14T03:48:42.157Z,51.22
2022-09-14T03:49:42.227Z,51.50
2022-09-14T03:50:42.150Z,53.10
2022-09-14T03:51:42.127Z,53.00
2022-09-14T03:52:42.132Z,51.03
2022-09-14T03:53:42.118Z,53.08
2022-09-14T03:54:42.137Z,51.52
2022-09-14T03:55:42.116Z,52.18
2022-09-14T03:56:42.123Z,52.45
2022-09-14T03:57:42.088Z,53.87
2022-09-14T03:58:42.101Z,51.53
2022-09-14T03:59:43.818Z,52.17
2022-09-14T04:00:43.078Z,51.35
2022-09-14T04:01:42.142Z,53.86
2022-09-14T04:02:42.140Z,51.97
2022-09-14T04:03:42.047Z,56.48
2022-09-14T04:04:42.078Z,53.55
2022-09-14T04:05:42.047Z,52.86
2022-09-14T04:06:42.030Z,50.38
2022-09-14T04:07:42.028Z,52.50
2022-09-14T04:08:42.086Z,51.73
2022-09-14T04:09:42.025Z,55.29
2022-09-14T04:10:42.017Z,54.21
2022-09-14T04:11:41.998Z,53.47
2022-09-14T04:12:42.033Z,51.76
2022-09-14T04:13:42.001Z,52.54
2022-09-14T04:14:42.017Z,52.12
2022-09-14T04:15:42.122Z,51.87
2022-09-14T04:16:41.998Z,53.13
2022-09-14T04:17:41.973Z,51.75
2022-09-14T04:18:41.985Z,53.02
2022-09-14T04:19:41.982Z,52.26
2022-09-14T04:20:41.938Z,52.11
2022-09-14T04:21:41.962Z,53.98
2022-09-14T04:22:41.974Z,52.48
2022-09-14T04:24:10.103Z,54.75
2022-09-14T04:24:43.993Z,55.65
2022-09-14T04:25:41.996Z,53.42
2022-09-14T04:26:41.942Z,55.03
2022-09-14T04:27:41.931Z,52.66
2022-09-14T04:28:41.900Z,54.14
2022-09-14T04:29:41.888Z,53.16
2022-09-14T04:30:41.927Z,55.49
2022-09-14T04:31:41.962Z,54.08
2022-09-14T04:32:41.904Z,54.08
2022-09-14T04:33:41.867Z,55.85
2022-09-14T04:34:41.893Z,54.80
2022-09-14T04:35:41.859Z,53.35
2022-09-14T04:36:41.847Z,50.59
2022-09-14T04:37:41.861Z,53.60
2022-09-14T04:38:41.871Z,55.45
2022-09-14T04:39:41.926Z,52.87
2022-09-14T04:40:41.823Z,52.05
2022-09-14T04:41:41.848Z,53.80
2022-09-14T04:42:41.805Z,53.66
2022-09-14T04:43:41.829Z,52.47
2022-09-14T04:44:41.823Z,53.85
2022-09-14T04:45:41.812Z,52.54
2022-09-14T04:46:46.191Z,52.48
2022-09-14T04:47:43.806Z,54.50
2022-09-14T04:48:41.815Z,52.81
2022-09-14T04:49:41.823Z,54.11
2022-09-14T04:50:41.765Z,55.03
2022-09-14T04:51:41.768Z,55.20
2022-09-14T04:52:41.756Z,54.57
2022-09-14T04:53:41.754Z,56.19
2022-09-14T04:54:41.769Z,56.93
2022-09-14T04:55:41.758Z,54.56
2022-09-14T04:56:41.732Z,54.08
2022-09-14T04:57:41.740Z,55.23
2022-09-14T04:58:41.779Z,58.15
2022-09-14T04:59:41.735Z,54.59
2022-09-14T05:00:41.702Z,56.83
2022-09-14T05:01:41.772Z,58.13
2022-09-14T05:02:41.786Z,59.68
2022-09-14T05:03:41.748Z,60.08
2022-09-14T05:04:41.707Z,58.51
2022-09-14T05:05:44.819Z,54.93
2022-09-14T05:06:42.675Z,54.68
2022-09-14T05:07:41.681Z,52.07
2022-09-14T05:08:41.675Z,54.47
2022-09-14T05:09:41.694Z,55.63
2022-09-14T05:10:41.688Z,56.27
2022-09-14T05:11:41.631Z,56.84
2022-09-14T05:12:41.688Z,57.35
2022-09-14T05:13:43.420Z,57.76
2022-09-14T05:14:41.663Z,56.74
2022-09-14T05:15:41.654Z,56.23
2022-09-14T05:16:41.613Z,57.38
2022-09-14T05:17:41.664Z,54.93
2022-09-14T05:18:41.594Z,55.17
2022-09-14T05:19:41.623Z,57.20
2022-09-14T05:20:41.632Z,55.28
2022-09-14T05:21:41.573Z,54.07
2022-09-14T05:22:41.611Z,55.43
2022-09-14T05:23:41.555Z,56.85
2022-09-14T05:24:41.652Z,56.67
2022-09-14T05:25:41.600Z,56.76
2022-09-14T05:26:41.609Z,56.51
2022-09-14T05:27:41.536Z,55.63
2022-09-14T05:28:41.582Z,55.52
2022-09-14T05:29:41.567Z,57.09
2022-09-14T05:30:41.532Z,57.12
2022-09-14T05:31:41.689Z,58.71
2022-09-14T05:32:41.510Z,57.43
2022-09-14T05:33:41.643Z,58.22
2022-09-14T05:34:42.500Z,59.24
2022-09-14T05:35:41.481Z,57.82
2022-09-14T05:36:41.513Z,57.66
2022-09-14T05:37:41.470Z,57.40
2022-09-14T05:38:41.467Z,55.25
2022-09-14T05:39:41.452Z,57.47
2022-09-14T05:40:41.495Z,55.47
2022-09-14T05:41:41.584Z,58.03
2022-09-14T05:42:41.434Z,56.59
2022-09-14T05:43:41.460Z,54.88
2022-09-14T05:44:41.424Z,56.06
2022-09-14T05:45:41.421Z,57.07
2022-09-14T05:46:41.423Z,56.41
2022-09-14T05:47:41.413Z,55.94
2022-09-14T05:48:41.454Z,58.30
2022-09-14T05:49:41.402Z,57.09
2022-09-14T05:50:41.420Z,57.45
2022-09-14T05:51:41.387Z,57.34
2022-09-14T05:52:41.401Z,56.44
2022-09-14T05:53:41.378Z,57.05
2022-09-14T05:54:41.400Z,57.59
2022-09-14T05:55:41.379Z,56.41
2022-09-14T05:56:41.353Z,56.63
2022-09-14T05:57:41.340Z,55.87
2022-09-14T05:58:41.366Z,56.18
2022-09-14T05:59:41.384Z,54.44
2022-09-14T06:00:41.325Z,55.83
2022-09-14T06:01:41.390Z,56.13
2022-09-14T06:02:41.316Z,56.08
2022-09-14T06:03:41.327Z,57.09
2022-09-14T06:04:41.405Z,55.94
2022-09-14T06:05:41.359Z,58.22
2022-09-14T06:06:41.810Z,57.29
2022-09-14T06:07:42.269Z,56.23
2022-09-14T06:08:41.310Z,57.64
2022-09-14T06:09:41.300Z,55.37
2022-09-14T06:10:41.275Z,58.14
2022-09-14T06:11:41.287Z,59.10
2022-09-14T06:12:41.264Z,57.91
2022-09-14T06:13:41.242Z,58.70
2022-09-14T06:14:41.279Z,58.19
2022-09-14T06:15:41.262Z,56.02
2022-09-14T06:16:41.258Z,56.66
2022-09-14T06:17:41.232Z,55.15
2022-09-14T06:18:41.218Z,55.15
2022-09-14T06:19:41.245Z,58.35
2022-09-14T06:20:41.275Z,58.12
2022-09-14T06:21:41.236Z,55.17
2022-09-14T06:22:41.192Z,57.24
2022-09-14T06:23:41.203Z,56.10
2022-09-14T06:24:41.185Z,56.37
2022-09-14T06:25:41.188Z,56.43
2022-09-14T06:26:41.178Z,55.82
2022-09-14T06:27:41.166Z,59.05
2022-09-14T06:28:41.135Z,56.21
2022-09-14T06:29:41.289Z,56.92
2022-09-14T06:30:41.249Z,56.25
2022-09-14T06:31:41.191Z,57.29
2022-09-14T06:32:41.299Z,57.61
2022-09-14T06:33:41.210Z,57.84
2022-09-14T06:34:41.292Z,57.56
2022-09-14T06:35:41.184Z,58.34
2022-09-14T06:36:41.165Z,55.67
2022-09-14T06:37:41.086Z,54.69
2022-09-14T06:38:41.127Z,57.65
2022-09-14T06:39:41.086Z,55.30
2022-09-14T06:40:41.101Z,54.17
2022-09-14T06:41:41.056Z,56.85
2022-09-14T06:42:41.086Z,55.31
2022-09-14T06:43:41.083Z,55.52
2022-09-14T06:44:41.062Z,53.75
2022-09-14T06:45:42.051Z,54.71
2022-09-14T06:46:44.550Z,57.81
2022-09-14T06:47:42.068Z,55.87
2022-09-14T06:48:41.066Z,53.84
2022-09-14T06:49:41.039Z,55.36
2022-09-14T06:50:41.021Z,56.32
2022-09-14T06:51:41.049Z,53.13
2022-09-14T06:52:41.002Z,55.47
2022-09-14T06:53:41.041Z,56.12
2022-09-14T06:54:41.002Z,53.48
2022-09-14T06:55:40.974Z,54.86
2022-09-14T06:56:40.969Z,53.48
2022-09-14T06:57:42.994Z,53.47
2022-09-14T06:58:41.978Z,54.56
2022-09-14T06:59:40.984Z,55.94
2022-09-14T07:00:40.934Z,55.63
2022-09-14T07:01:40.947Z,52.20
2022-09-14T07:02:41.034Z,53.76
2022-09-14T07:03:40.979Z,52.87
2022-09-14T07:04:40.975Z,54.08
2022-09-14T07:05:40.917Z,54.96
2022-09-14T07:06:40.948Z,54.70
2022-09-14T07:07:40.990Z,54.16
2022-09-14T07:08:40.994Z,56.18
2022-09-14T07:09:40.893Z,54.75
2022-09-14T07:10:40.904Z,56.07
2022-09-14T07:11:40.880Z,56.68
2022-09-14T07:12:40.863Z,56.34
2022-09-14T07:13:40.874Z,59.14
2022-09-14T07:14:40.859Z,60.14
2022-09-14T07:15:40.884Z,60.25
2022-09-14T07:16:40.852Z,59.49
2022-09-14T07:17:40.983Z,59.23
2022-09-14T07:18:40.880Z,58.69
2022-09-14T07:19:40.830Z,58.21
2022-09-14T07:20:40.869Z,59.21
2022-09-14T07:21:40.846Z,57.26
2022-09-14T07:22:40.809Z,57.83
2022-09-14T07:23:40.820Z,55.49
2022-09-14T07:24:40.818Z,58.68
2022-09-14T07:25:40.805Z,54.85
2022-09-14T07:26:40.802Z,54.38
2022-09-14T07:27:40.865Z,55.27
2022-09-14T07:28:40.881Z,53.20
2022-09-14T07:29:40.774Z,53.68
2022-09-14T07:30:40.822Z,55.69
2022-09-14T07:31:40.762Z,53.04
2022-09-14T07:32:40.796Z,53.63
2022-09-14T07:33:40.869Z,53.06
2022-09-14T07:34:40.802Z,55.58
2022-09-14T07:35:40.724Z,54.70
2022-09-14T07:36:40.737Z,53.56
2022-09-14T07:37:40.781Z,56.29
2022-09-14T07:38:51.682Z,55.06
2022-09-14T07:39:42.793Z,53.50
2022-09-14T07:40:40.683Z,52.80
2022-09-14T07:41:40.678Z,54.70
2022-09-14T07:42:40.684Z,54.43
2022-09-14T07:43:40.721Z,53.15
2022-09-14T07:44:40.732Z,55.09
2022-09-14T07:45:40.736Z,56.54
2022-09-14T07:46:40.668Z,56.13
2022-09-14T07:47:40.653Z,57.20
2022-09-14T07:48:40.709Z,57.11
2022-09-14T07:49:40.676Z,57.39
2022-09-14T07:50:40.709Z,58.06
2022-09-14T07:51:40.617Z,58.36
2022-09-14T07:52:40.625Z,59.05
2022-09-14T07:53:40.643Z,59.30
2022-09-14T07:54:40.612Z,60.04
2022-09-14T07:55:40.588Z,58.29
2022-09-14T07:56:40.613Z,58.57
2022-09-14T07:57:55.623Z,58.87
2022-09-14T07:58:42.573Z,57.06
2022-09-14T07:59:40.575Z,55.01
2022-09-14T08:00:40.586Z,56.52
2022-09-14T08:01:40.622Z,53.79
2022-09-14T08:02:40.615Z,54.28
2022-09-14T08:03:40.623Z,54.01
2022-09-14T08:04:40.548Z,53.35
2022-09-14T08:05:40.595Z,55.62
2022-09-14T08:06:40.674Z,52.97
2022-09-14T08:07:40.570Z,52.92
2022-09-14T08:08:40.513Z,53.42
2022-09-14T08:09:40.675Z,54.77
2022-09-14T08:10:40.502Z,54.23
2022-09-14T08:11:40.496Z,55.45
2022-09-14T08:12:40.502Z,56.32
2022-09-14T08:13:40.469Z,54.43
2022-09-14T08:14:40.511Z,54.29
2022-09-14T08:15:40.462Z,55.71
2022-09-14T08:16:40.990Z,54.14
2022-09-14T08:17:40.587Z,54.61
2022-09-14T08:18:40.499Z,53.69
2022-09-14T08:19:40.445Z,55.25
2022-09-14T08:20:40.437Z,53.60
2022-09-14T08:21:45.657Z,52.34
2022-09-14T08:22:42.484Z,52.24
2022-09-14T08:23:40.414Z,54.56
2022-09-14T08:24:40.518Z,53.67
2022-09-14T08:25:40.416Z,53.36
2022-09-14T08:26:40.461Z,53.71
2022-09-14T08:27:40.458Z,56.31
2022-09-14T08:28:40.409Z,55.84
2022-09-14T08:29:40.405Z,57.50
2022-09-14T08:30:40.359Z,53.52
2022-09-14T08:31:40.414Z,55.43
2022-09-14T08:32:40.382Z,53.31
2022-09-14T08:33:40.369Z,54.47
2022-09-14T08:34:40.375Z,56.64
2022-09-14T08:35:56.920Z,56.51
2022-09-14T08:36:42.343Z,55.14
2022-09-14T08:37:40.350Z,56.56
2022-09-14T08:38:40.388Z,57.46
2022-09-14T08:39:40.360Z,56.79
2022-09-14T08:40:40.360Z,55.36
2022-09-14T08:41:40.304Z,54.95
2022-09-14T08:42:40.297Z,56.70
2022-09-14T08:43:40.361Z,56.26
2022-09-14T08:44:40.307Z,57.37
2022-09-14T08:45:40.349Z,55.00
2022-09-14T08:46:40.289Z,53.60
2022-09-14T08:47:40.285Z,55.63
2022-09-14T08:48:40.277Z,56.24
2022-09-14T08:49:40.284Z,55.93
2022-09-14T08:50:40.264Z,55.71
2022-09-14T08:51:40.247Z,53.44
2022-09-14T08:52:40.299Z,53.71
2022-09-14T08:53:40.278Z,53.36
2022-09-14T08:54:40.260Z,54.57
2022-09-14T08:55:40.270Z,54.56
2022-09-14T08:56:40.222Z,55.13
2022-09-14T08:57:40.199Z,56.91
2022-09-14T08:58:52.609Z,57.89
2022-09-14T08:59:42.184Z,59.41
2022-09-14T09:00:40.334Z,59.85
2022-09-14T09:01:40.180Z,60.58
2022-09-14T09:02:40.149Z,61.97
2022-09-14T09:03:40.217Z,61.09
2022-09-14T09:04:40.155Z,58.02
2022-09-14T09:05:40.139Z,55.54
2022-09-14T09:06:40.222Z,58.11
2022-09-14T09:07:40.130Z,54.41
2022-09-14T09:08:40.216Z,56.70
2022-09-14T09:09:40.143Z,55.20
2022-09-14T09:10:40.121Z,54.05
2022-09-14T09:11:40.126Z,55.07
2022-09-14T09:12:40.102Z,56.12
2022-09-14T09:13:40.101Z,56.28
2022-09-14T09:14:40.088Z,58.37
2022-09-14T09:15:40.094Z,56.47
2022-09-14T09:16:40.189Z,55.20
2022-09-14T09:17:40.059Z,56.54
2022-09-14T09:18:40.206Z,55.07
2022-09-14T09:19:40.056Z,54.02
2022-09-14T09:20:40.050Z,57.98
2022-09-14T09:21:40.076Z,54.16
2022-09-14T09:22:40.081Z,55.29
2022-09-14T09:23:40.037Z,55.67
2022-09-14T09:24:40.049Z,56.19
2022-09-14T09:25:40.044Z,55.50
2022-09-14T09:26:40.069Z,53.78
2022-09-14T09:27:39.981Z,55.23
2022-09-14T09:28:40.008Z,53.70
2022-09-14T09:29:40.039Z,58.34
2022-09-14T09:30:39.963Z,51.77
2022-09-14T09:31:40.073Z,54.88
2022-09-14T09:32:39.967Z,55.34
2022-09-14T09:33:40.011Z,53.81
2022-09-14T09:34:39.983Z,56.81
2022-09-14T09:35:40.008Z,52.30
2022-09-14T09:36:39.947Z,56.04
2022-09-14T09:37:39.935Z,52.08
2022-09-14T09:38:39.910Z,53.29
2022-09-14T09:39:39.951Z,50.18
2022-09-14T09:40:40.098Z,54.71
2022-09-14T09:41:39.938Z,53.59
2022-09-14T09:42:39.981Z,55.59
2022-09-14T09:43:49.288Z,53.56
2022-09-14T09:44:41.899Z,52.39
2022-09-14T09:45:39.904Z,54.39
2022-09-14T09:46:39.913Z,51.49
2022-09-14T09:47:39.930Z,53.68
2022-09-14T09:48:40.890Z,55.47
2022-09-14T09:49:39.857Z,55.68
2022-09-14T09:50:39.929Z,54.93
2022-09-14T09:51:39.905Z,56.72
2022-09-14T09:52:39.841Z,55.96
2022-09-14T09:53:39.834Z,54.33
2022-09-14T09:54:39.863Z,55.72
2022-09-14T09:55:39.815Z,52.24
2022-09-14T09:56:39.856Z,54.14
2022-09-14T09:57:39.792Z,54.96
2022-09-14T09:58:39.795Z,51.66
2022-09-14T09:59:39.801Z,54.28
2022-09-14T10:00:39.829Z,56.69
2022-09-14T10:01:39.894Z,54.22
2022-09-14T10:02:39.822Z,57.29
2022-09-14T10:03:39.781Z,53.04
2022-09-14T10:04:39.786Z,52.88
2022-09-14T10:05:39.746Z,54.02
2022-09-14T10:06:39.746Z,55.66
2022-09-14T10:07:39.701Z,55.53
2022-09-14T10:08:39.884Z,57.56
2022-09-14T10:09:39.719Z,56.84
2022-09-14T10:10:39.775Z,58.08
2022-09-14T10:11:39.710Z,59.86
2022-09-14T10:12:39.704Z,61.63
2022-09-14T10:13:39.723Z,61.20
2022-09-14T10:14:39.696Z,60.26
2022-09-14T10:15:39.697Z,59.54
2022-09-14T10:16:39.666Z,60.04
2022-09-14T10:17:39.653Z,58.72
2022-09-14T10:18:39.702Z,58.42
2022-09-14T10:19:39.680Z,57.48
2022-09-14T10:20:39.659Z,56.54
2022-09-14T10:21:39.624Z,55.43
2022-09-14T10:22:39.621Z,55.55
2022-09-14T10:23:39.746Z,55.74
2022-09-14T10:24:39.652Z,54.81
2022-09-14T10:25:39.623Z,55.65
2022-09-14T10:26:40.590Z,55.71
2022-09-14T10:27:39.637Z,56.28
2022-09-14T10:28:39.640Z,56.89
2022-09-14T10:29:39.598Z,56.12
2022-09-14T10:30:39.561Z,56.42
2022-09-14T10:31:39.695Z,56.33
2022-09-14T10:32:39.564Z,58.15
2022-09-14T10:33:39.616Z,56.78
2022-09-14T10:34:39.545Z,56.42
2022-09-14T10:35:39.663Z,59.10
2022-09-14T10:36:39.583Z,58.76
2022-09-14T10:37:40.128Z,57.20
2022-09-14T10:38:39.521Z,55.44
2022-09-14T10:39:39.527Z,56.69
2022-09-14T10:40:39.523Z,57.52
2022-09-14T10:41:39.521Z,56.88
2022-09-14T10:42:39.545Z,55.56
2022-09-14T10:43:39.530Z,55.43
2022-09-14T10:44:39.491Z,55.35
2022-09-14T10:45:39.517Z,58.03
2022-09-14T10:46:39.543Z,55.92
2022-09-14T10:47:39.502Z,57.87
2022-09-14T10:48:39.511Z,54.08
2022-09-14T10:49:39.435Z,53.79
2022-09-14T10:50:39.448Z,54.37
2022-09-14T10:51:39.417Z,54.98
2022-09-14T10:52:39.444Z,55.13
2022-09-14T10:53:39.462Z,54.77
2022-09-14T10:54:39.424Z,53.42
2022-09-14T10:55:39.412Z,55.59
2022-09-14T10:56:39.453Z,56.21
2022-09-14T10:57:39.435Z,55.39
2022-09-14T10:58:39.378Z,56.53
2022-09-14T10:59:39.361Z,50.80
2022-09-14T11:00:39.364Z,56.44
2022-09-14T11:01:39.456Z,55.17
2022-09-14T11:02:39.474Z,50.43
2022-09-14T11:03:41.805Z,52.73
2022-09-14T11:04:41.354Z,53.27
2022-09-14T11:05:39.330Z,52.70
2022-09-14T11:06:39.366Z,53.76
2022-09-14T11:07:39.316Z,48.48
2022-09-14T11:08:39.319Z,53.97
2022-09-14T11:09:39.324Z,54.58
2022-09-14T11:10:39.297Z,52.70
2022-09-14T11:11:39.293Z,50.86
2022-09-14T11:12:39.278Z,53.34
2022-09-14T11:13:39.376Z,52.40
2022-09-14T11:14:39.297Z,50.56
2022-09-14T11:15:39.312Z,52.46
2022-09-14T11:16:39.253Z,50.09
2022-09-14T11:17:39.274Z,52.70
2022-09-14T11:18:39.259Z,52.38
2022-09-14T11:19:39.272Z,52.06
2022-09-14T11:20:42.609Z,52.60
2022-09-14T11:21:40.251Z,53.79
2022-09-14T11:22:39.216Z,53.11
2022-09-14T11:23:39.225Z,52.65
2022-09-14T11:24:39.251Z,52.65
2022-09-14T11:25:39.242Z,48.53
2022-09-14T11:26:42.315Z,49.60
2022-09-14T11:27:40.211Z,49.75
2022-09-14T11:28:39.209Z,52.66
2022-09-14T11:29:39.190Z,54.70
2022-09-14T11:30:39.183Z,50.11
2022-09-14T11:31:39.260Z,51.18
2022-09-14T11:32:39.166Z,54.28
2022-09-14T11:33:39.157Z,51.84
2022-09-14T11:34:39.189Z,54.70
2022-09-14T11:35:39.161Z,52.45
2022-09-14T11:36:39.140Z,50.69
2022-09-14T11:37:39.171Z,53.97
2022-09-14T11:38:39.179Z,51.69
2022-09-14T11:39:39.149Z,50.16
2022-09-14T11:40:39.167Z,49.41
2022-09-14T11:41:39.105Z,50.56
2022-09-14T11:42:39.111Z,51.91
2022-09-14T11:43:39.130Z,47.50
2022-09-14T11:44:39.092Z,52.97
2022-09-14T11:45:39.169Z,55.06
2022-09-14T11:46:39.165Z,50.18
2022-09-14T11:47:39.209Z,49.28
2022-09-14T11:48:42.898Z,52.47
2022-09-14T11:49:40.080Z,52.12
2022-09-14T11:50:39.053Z,51.16
2022-09-14T11:51:39.063Z,53.20
2022-09-14T11:52:39.045Z,50.10
2022-09-14T11:53:39.047Z,51.22
2022-09-14T11:54:41.493Z,47.35
2022-09-14T11:55:39.051Z,53.73
2022-09-14T11:56:39.003Z,51.48
2022-09-14T11:57:39.013Z,48.89
2022-09-14T11:58:39.074Z,50.30
2022-09-14T11:59:39.049Z,52.20
2022-09-14T12:00:38.995Z,49.87
2022-09-14T12:01:38.979Z,50.76
2022-09-14T12:02:39.050Z,50.98
2022-09-14T12:03:39.013Z,53.29
2022-09-14T12:04:38.980Z,54.39
2022-09-14T12:05:38.958Z,52.27
2022-09-14T12:06:38.953Z,47.44
2022-09-14T12:07:38.946Z,50.36
2022-09-14T12:08:38.930Z,56.78
2022-09-14T12:09:38.939Z,49.42
2022-09-14T12:10:42.784Z,49.73
2022-09-14T12:11:39.917Z,49.60
2022-09-14T12:12:38.907Z,50.06
2022-09-14T12:13:38.927Z,52.91
2022-09-14T12:14:38.893Z,51.15
2022-09-14T12:15:38.949Z,48.93
2022-09-14T12:16:38.883Z,53.06
2022-09-14T12:17:40.562Z,49.89
2022-09-14T12:18:39.857Z,51.90
2022-09-14T12:19:38.862Z,51.44
2022-09-14T12:20:38.864Z,51.44
2022-09-14T12:21:38.883Z,49.56
2022-09-14T12:22:38.855Z,53.45
2022-09-14T12:23:38.850Z,51.66
2022-09-14T12:24:38.838Z,53.74
2022-09-14T12:25:38.828Z,52.68
2022-09-14T12:26:38.840Z,54.01
2022-09-14T12:27:38.811Z,50.98
2022-09-14T12:28:38.819Z,51.13
2022-09-14T12:29:38.802Z,53.39
2022-09-14T12:30:40.933Z,52.23
2022-09-14T12:31:39.879Z,52.33
2022-09-14T12:32:38.814Z,53.87
2022-09-14T12:33:38.825Z,51.96
2022-09-14T12:34:38.748Z,50.89
2022-09-14T12:35:38.760Z,52.17
2022-09-14T12:36:38.775Z,55.09
2022-09-14T12:37:38.828Z,48.82
2022-09-14T12:38:38.759Z,53.84
2022-09-14T12:39:38.752Z,55.57
2022-09-14T12:40:38.767Z,54.06
2022-09-14T12:41:38.707Z,52.08
2022-09-14T12:42:38.704Z,54.90
2022-09-14T12:43:38.720Z,48.01
2022-09-14T12:44:38.707Z,48.67
2022-09-14T12:45:38.681Z,51.88
2022-09-14T12:46:38.880Z,51.82
2022-09-14T12:47:38.658Z,51.72
2022-09-14T12:48:38.676Z,53.49
2022-09-14T12:49:38.685Z,51.91
2022-09-14T12:50:38.645Z,52.00
2022-09-14T12:51:38.644Z,54.03
2022-09-14T12:52:38.643Z,49.66